sensor_id;sensor_type;location;lat;lon;timestamp;temperature;humidity
66144;SHT31;52947;50.842;6.084;2024-03-02T00:00:51;9.43;76.61
66144;SHT31;52947;50.842;6.084;2024-03-02T00:03:20;9.41;76.68
66144;SHT31;52947;50.842;6.084;2024-03-02T00:05:49;9.41;76.94
66144;SHT31;52947;50.842;6.084;2024-03-02T00:08:24;9.37;76.73
66144;SHT31;52947;50.842;6.084;2024-03-02T00:10:57;9.37;77.21
66144;SHT31;52947;50.842;6.084;2024-03-02T00:13:25;9.31;77.01
66144;SHT31;52947;50.842;6.084;2024-03-02T00:15:54;9.37;76.69
66144;SHT31;52947;50.842;6.084;2024-03-02T00:18:26;9.44;76.91
66144;SHT31;52947;50.842;6.084;2024-03-02T00:20:54;9.41;76.69
66144;SHT31;52947;50.842;6.084;2024-03-02T00:23:28;9.50;76.87
66144;SHT31;52947;50.842;6.084;2024-03-02T00:25:58;9.52;76.69
66144;SHT31;52947;50.842;6.084;2024-03-02T00:28:29;9.60;77.13
66144;SHT31;52947;50.842;6.084;2024-03-02T00:31:04;9.48;77.26
66144;SHT31;52947;50.842;6.084;2024-03-02T00:33:34;9.51;76.96
66144;SHT31;52947;50.842;6.084;2024-03-02T00:36:04;9.44;76.80
66144;SHT31;52947;50.842;6.084;2024-03-02T00:38:43;9.51;76.89
66144;SHT31;52947;50.842;6.084;2024-03-02T00:41:15;9.51;76.56
66144;SHT31;52947;50.842;6.084;2024-03-02T00:43:47;9.48;76.44
66144;SHT31;52947;50.842;6.084;2024-03-02T00:46:16;9.52;76.64
66144;SHT31;52947;50.842;6.084;2024-03-02T00:48:51;9.52;76.37
66144;SHT31;52947;50.842;6.084;2024-03-02T00:51:21;9.57;76.43
66144;SHT31;52947;50.842;6.084;2024-03-02T00:53:51;9.48;76.50
66144;SHT31;52947;50.842;6.084;2024-03-02T00:56:22;9.47;76.57
66144;SHT31;52947;50.842;6.084;2024-03-02T00:58:51;9.50;76.83
66144;SHT31;52947;50.842;6.084;2024-03-02T01:01:19;9.55;76.91
66144;SHT31;52947;50.842;6.084;2024-03-02T01:03:48;9.61;76.60
66144;SHT31;52947;50.842;6.084;2024-03-02T01:06:17;9.64;76.70
66144;SHT31;52947;50.842;6.084;2024-03-02T01:08:45;9.60;76.32
66144;SHT31;52947;50.842;6.084;2024-03-02T01:11:19;9.68;76.66
66144;SHT31;52947;50.842;6.084;2024-03-02T01:13:50;9.74;76.47
66144;SHT31;52947;50.842;6.084;2024-03-02T01:16:19;9.73;76.93
66144;SHT31;52947;50.842;6.084;2024-03-02T01:18:47;9.75;77.06
66144;SHT31;52947;50.842;6.084;2024-03-02T01:21:15;9.71;76.73
66144;SHT31;52947;50.842;6.084;2024-03-02T01:23:43;9.71;77.03
66144;SHT31;52947;50.842;6.084;2024-03-02T01:26:11;9.87;76.70
66144;SHT31;52947;50.842;6.084;2024-03-02T01:28:41;9.87;76.96
66144;SHT31;52947;50.842;6.084;2024-03-02T01:31:09;9.85;77.22
66144;SHT31;52947;50.842;6.084;2024-03-02T01:33:37;9.95;77.07
66144;SHT31;52947;50.842;6.084;2024-03-02T01:36:06;9.89;77.67
66144;SHT31;52947;50.842;6.084;2024-03-02T01:38:35;9.75;78.53
66144;SHT31;52947;50.842;6.084;2024-03-02T01:41:03;9.58;79.43
66144;SHT31;52947;50.842;6.084;2024-03-02T01:43:31;9.43;80.43
66144;SHT31;52947;50.842;6.084;2024-03-02T01:46:00;9.26;81.39
66144;SHT31;52947;50.842;6.084;2024-03-02T01:48:28;9.23;82.08
66144;SHT31;52947;50.842;6.084;2024-03-02T01:50:56;9.27;82.03
66144;SHT31;52947;50.842;6.084;2024-03-02T01:53:24;9.20;82.36
66144;SHT31;52947;50.842;6.084;2024-03-02T01:55:53;9.06;82.96
66144;SHT31;52947;50.842;6.084;2024-03-02T01:58:21;9.33;83.10
66144;SHT31;52947;50.842;6.084;2024-03-02T02:01:08;9.37;82.91
66144;SHT31;52947;50.842;6.084;2024-03-02T02:03:37;9.64;83.29
66144;SHT31;52947;50.842;6.084;2024-03-02T02:06:05;9.67;83.02
66144;SHT31;52947;50.842;6.084;2024-03-02T02:08:33;9.73;83.10
66144;SHT31;52947;50.842;6.084;2024-03-02T02:11:02;9.57;83.25
66144;SHT31;52947;50.842;6.084;2024-03-02T02:13:30;9.50;83.89
66144;SHT31;52947;50.842;6.084;2024-03-02T02:16:04;9.30;83.52
66144;SHT31;52947;50.842;6.084;2024-03-02T02:18:34;8.93;85.02
66144;SHT31;52947;50.842;6.084;2024-03-02T02:21:03;8.71;85.27
66144;SHT31;52947;50.842;6.084;2024-03-02T02:23:32;8.49;86.42
66144;SHT31;52947;50.842;6.084;2024-03-02T02:26:00;8.51;87.27
66144;SHT31;52947;50.842;6.084;2024-03-02T02:28:30;8.41;87.36
66144;SHT31;52947;50.842;6.084;2024-03-02T02:30:58;8.42;87.57
66144;SHT31;52947;50.842;6.084;2024-03-02T02:33:28;8.31;87.93
66144;SHT31;52947;50.842;6.084;2024-03-02T02:35:56;8.28;88.19
66144;SHT31;52947;50.842;6.084;2024-03-02T02:38:24;8.17;88.27
66144;SHT31;52947;50.842;6.084;2024-03-02T02:40:52;7.97;88.71
66144;SHT31;52947;50.842;6.084;2024-03-02T02:43:20;8.07;88.99
66144;SHT31;52947;50.842;6.084;2024-03-02T02:45:48;7.96;89.46
66144;SHT31;52947;50.842;6.084;2024-03-02T02:48:16;8.01;89.62
66144;SHT31;52947;50.842;6.084;2024-03-02T02:50:44;7.96;90.02
66144;SHT31;52947;50.842;6.084;2024-03-02T02:53:12;7.84;90.68
66144;SHT31;52947;50.842;6.084;2024-03-02T02:55:40;7.73;90.69
66144;SHT31;52947;50.842;6.084;2024-03-02T02:58:11;7.59;91.56
66144;SHT31;52947;50.842;6.084;2024-03-02T03:00:40;7.48;91.78
66144;SHT31;52947;50.842;6.084;2024-03-02T03:03:08;7.41;92.12
66144;SHT31;52947;50.842;6.084;2024-03-02T03:05:36;7.56;91.93
66144;SHT31;52947;50.842;6.084;2024-03-02T03:08:05;7.46;91.80
66144;SHT31;52947;50.842;6.084;2024-03-02T03:10:32;7.36;92.52
66144;SHT31;52947;50.842;6.084;2024-03-02T03:13:01;7.28;93.44
66144;SHT31;52947;50.842;6.084;2024-03-02T03:15:30;7.36;93.10
66144;SHT31;52947;50.842;6.084;2024-03-02T03:17:58;7.34;92.78
66144;SHT31;52947;50.842;6.084;2024-03-02T03:20:27;7.18;93.44
66144;SHT31;52947;50.842;6.084;2024-03-02T03:22:54;7.28;93.60
66144;SHT31;52947;50.842;6.084;2024-03-02T03:25:23;7.45;93.83
66144;SHT31;52947;50.842;6.084;2024-03-02T03:27:51;7.42;92.76
66144;SHT31;52947;50.842;6.084;2024-03-02T03:30:19;7.48;94.27
66144;SHT31;52947;50.842;6.084;2024-03-02T03:32:49;7.63;92.82
66144;SHT31;52947;50.842;6.084;2024-03-02T03:35:17;7.55;92.32
66144;SHT31;52947;50.842;6.084;2024-03-02T03:37:45;7.48;92.97
66144;SHT31;52947;50.842;6.084;2024-03-02T03:40:13;7.39;92.82
66144;SHT31;52947;50.842;6.084;2024-03-02T03:42:41;7.43;92.96
66144;SHT31;52947;50.842;6.084;2024-03-02T03:45:09;7.38;92.72
66144;SHT31;52947;50.842;6.084;2024-03-02T03:47:37;7.49;92.95
66144;SHT31;52947;50.842;6.084;2024-03-02T03:50:07;7.43;92.35
66144;SHT31;52947;50.842;6.084;2024-03-02T03:52:35;7.58;92.19
66144;SHT31;52947;50.842;6.084;2024-03-02T03:55:04;7.58;92.60
66144;SHT31;52947;50.842;6.084;2024-03-02T03:57:33;7.36;92.10
66144;SHT31;52947;50.842;6.084;2024-03-02T04:00:02;7.35;92.62
66144;SHT31;52947;50.842;6.084;2024-03-02T04:02:37;7.43;92.31
66144;SHT31;52947;50.842;6.084;2024-03-02T04:05:07;7.59;91.90
66144;SHT31;52947;50.842;6.084;2024-03-02T04:07:38;7.66;91.32
66144;SHT31;52947;50.842;6.084;2024-03-02T04:10:08;7.67;91.09
66144;SHT31;52947;50.842;6.084;2024-03-02T04:12:36;7.63;91.40
66144;SHT31;52947;50.842;6.084;2024-03-02T04:15:05;7.65;91.01
66144;SHT31;52947;50.842;6.084;2024-03-02T04:17:33;7.80;90.79
66144;SHT31;52947;50.842;6.084;2024-03-02T04:20:03;7.90;90.08
66144;SHT31;52947;50.842;6.084;2024-03-02T04:22:34;8.08;91.10
66144;SHT31;52947;50.842;6.084;2024-03-02T04:25:03;8.07;89.92
66144;SHT31;52947;50.842;6.084;2024-03-02T04:27:34;8.14;90.69
66144;SHT31;52947;50.842;6.084;2024-03-02T04:30:03;8.10;89.63
66144;SHT31;52947;50.842;6.084;2024-03-02T04:32:31;8.16;89.11
66144;SHT31;52947;50.842;6.084;2024-03-02T04:34:59;7.94;88.55
66144;SHT31;52947;50.842;6.084;2024-03-02T04:37:27;7.93;88.33
66144;SHT31;52947;50.842;6.084;2024-03-02T04:39:57;7.96;88.49
66144;SHT31;52947;50.842;6.084;2024-03-02T04:42:25;8.08;89.22
66144;SHT31;52947;50.842;6.084;2024-03-02T04:44:53;8.11;88.58
66144;SHT31;52947;50.842;6.084;2024-03-02T04:47:21;8.06;87.28
66144;SHT31;52947;50.842;6.084;2024-03-02T04:49:49;7.94;87.59
66144;SHT31;52947;50.842;6.084;2024-03-02T04:52:17;8.01;89.89
66144;SHT31;52947;50.842;6.084;2024-03-02T04:54:45;8.25;87.71
66144;SHT31;52947;50.842;6.084;2024-03-02T04:57:46;8.34;87.72
66144;SHT31;52947;50.842;6.084;2024-03-02T05:00:15;8.35;85.02
66144;SHT31;52947;50.842;6.084;2024-03-02T05:02:44;8.28;84.81
66144;SHT31;52947;50.842;6.084;2024-03-02T05:05:12;8.13;84.38
66144;SHT31;52947;50.842;6.084;2024-03-02T05:07:42;8.03;84.82
66144;SHT31;52947;50.842;6.084;2024-03-02T05:10:11;8.13;85.87
66144;SHT31;52947;50.842;6.084;2024-03-02T05:12:39;8.13;85.18
66144;SHT31;52947;50.842;6.084;2024-03-02T05:15:25;8.07;84.80
66144;SHT31;52947;50.842;6.084;2024-03-02T05:17:54;7.93;84.40
66144;SHT31;52947;50.842;6.084;2024-03-02T05:20:24;7.93;85.02
66144;SHT31;52947;50.842;6.084;2024-03-02T05:22:51;7.93;84.91
66144;SHT31;52947;50.842;6.084;2024-03-02T05:25:19;7.94;84.71
66144;SHT31;52947;50.842;6.084;2024-03-02T05:27:47;8.13;85.13
66144;SHT31;52947;50.842;6.084;2024-03-02T05:30:16;8.10;85.98
66144;SHT31;52947;50.842;6.084;2024-03-02T05:32:45;8.18;86.03
66144;SHT31;52947;50.842;6.084;2024-03-02T05:35:13;8.06;85.22
66144;SHT31;52947;50.842;6.084;2024-03-02T05:37:41;8.20;87.78
66144;SHT31;52947;50.842;6.084;2024-03-02T05:40:09;8.28;85.41
66144;SHT31;52947;50.842;6.084;2024-03-02T05:42:39;8.35;84.02
66144;SHT31;52947;50.842;6.084;2024-03-02T05:45:08;8.58;85.46
66144;SHT31;52947;50.842;6.084;2024-03-02T05:47:36;8.49;84.70
66144;SHT31;52947;50.842;6.084;2024-03-02T05:50:07;8.27;85.01
66144;SHT31;52947;50.842;6.084;2024-03-02T05:52:35;8.30;86.64
66144;SHT31;52947;50.842;6.084;2024-03-02T05:55:04;8.44;84.33
66144;SHT31;52947;50.842;6.084;2024-03-02T05:57:32;8.40;83.43
66144;SHT31;52947;50.842;6.084;2024-03-02T06:00:15;8.40;83.79
66144;SHT31;52947;50.842;6.084;2024-03-02T06:02:44;8.21;83.88
66144;SHT31;52947;50.842;6.084;2024-03-02T06:05:13;8.21;85.18
66144;SHT31;52947;50.842;6.084;2024-03-02T06:07:41;8.27;84.20
66144;SHT31;52947;50.842;6.084;2024-03-02T06:10:09;8.37;84.42
66144;SHT31;52947;50.842;6.084;2024-03-02T06:12:40;8.20;83.04
66144;SHT31;52947;50.842;6.084;2024-03-02T06:15:09;8.28;83.71
66144;SHT31;52947;50.842;6.084;2024-03-02T06:17:37;8.31;85.36
66144;SHT31;52947;50.842;6.084;2024-03-02T06:20:06;8.33;86.03
66144;SHT31;52947;50.842;6.084;2024-03-02T06:22:37;8.25;86.37
66144;SHT31;52947;50.842;6.084;2024-03-02T06:25:05;8.65;85.43
66144;SHT31;52947;50.842;6.084;2024-03-02T06:27:33;8.82;83.56
66144;SHT31;52947;50.842;6.084;2024-03-02T06:30:01;8.59;83.61
66144;SHT31;52947;50.842;6.084;2024-03-02T06:32:30;8.62;84.31
66144;SHT31;52947;50.842;6.084;2024-03-02T06:34:58;8.62;84.03
66144;SHT31;52947;50.842;6.084;2024-03-02T06:37:26;8.73;84.80
66144;SHT31;52947;50.842;6.084;2024-03-02T06:39:56;8.73;84.35
66144;SHT31;52947;50.842;6.084;2024-03-02T06:42:24;8.92;82.89
66144;SHT31;52947;50.842;6.084;2024-03-02T06:44:52;8.96;82.53
66144;SHT31;52947;50.842;6.084;2024-03-02T06:47:20;8.89;83.21
66144;SHT31;52947;50.842;6.084;2024-03-02T06:49:48;8.89;82.40
66144;SHT31;52947;50.842;6.084;2024-03-02T06:52:16;8.85;82.98
66144;SHT31;52947;50.842;6.084;2024-03-02T06:54:47;8.80;82.44
66144;SHT31;52947;50.842;6.084;2024-03-02T06:57:16;8.97;83.89
66144;SHT31;52947;50.842;6.084;2024-03-02T06:59:46;8.80;82.81
66144;SHT31;52947;50.842;6.084;2024-03-02T07:02:16;8.90;82.79
66144;SHT31;52947;50.842;6.084;2024-03-02T07:04:44;8.71;83.62
66144;SHT31;52947;50.842;6.084;2024-03-02T07:07:12;8.56;83.07
66144;SHT31;52947;50.842;6.084;2024-03-02T07:09:40;8.54;83.91
66144;SHT31;52947;50.842;6.084;2024-03-02T07:12:08;8.51;82.63
66144;SHT31;52947;50.842;6.084;2024-03-02T07:14:38;8.42;82.97
66144;SHT31;52947;50.842;6.084;2024-03-02T07:17:23;8.40;82.78
66144;SHT31;52947;50.842;6.084;2024-03-02T07:19:51;8.45;82.78
66144;SHT31;52947;50.842;6.084;2024-03-02T07:22:19;8.34;82.65
66144;SHT31;52947;50.842;6.084;2024-03-02T07:24:47;8.45;82.90
66144;SHT31;52947;50.842;6.084;2024-03-02T07:27:16;8.61;82.54
66144;SHT31;52947;50.842;6.084;2024-03-02T07:29:46;8.52;82.71
66144;SHT31;52947;50.842;6.084;2024-03-02T07:32:14;8.33;82.04
66144;SHT31;52947;50.842;6.084;2024-03-02T07:34:42;8.42;82.37
66144;SHT31;52947;50.842;6.084;2024-03-02T07:37:10;9.52;79.78
66144;SHT31;52947;50.842;6.084;2024-03-02T07:39:38;10.25;77.34
66144;SHT31;52947;50.842;6.084;2024-03-02T07:42:06;9.60;78.14
66144;SHT31;52947;50.842;6.084;2024-03-02T07:44:34;9.92;78.94
66144;SHT31;52947;50.842;6.084;2024-03-02T07:47:05;11.08;76.33
66144;SHT31;52947;50.842;6.084;2024-03-02T07:49:34;11.85;73.66
66144;SHT31;52947;50.842;6.084;2024-03-02T07:52:02;12.87;70.19
66144;SHT31;52947;50.842;6.084;2024-03-02T07:54:30;13.42;69.36
66144;SHT31;52947;50.842;6.084;2024-03-02T07:56:58;13.47;68.16
66144;SHT31;52947;50.842;6.084;2024-03-02T07:59:27;13.98;66.99
66144;SHT31;52947;50.842;6.084;2024-03-02T08:01:55;14.08;66.85
66144;SHT31;52947;50.842;6.084;2024-03-02T08:04:25;14.66;66.08
66144;SHT31;52947;50.842;6.084;2024-03-02T08:06:53;14.69;64.82
66144;SHT31;52947;50.842;6.084;2024-03-02T08:09:21;15.20;64.20
66144;SHT31;52947;50.842;6.084;2024-03-02T08:11:49;14.87;64.05
66144;SHT31;52947;50.842;6.084;2024-03-02T08:14:17;14.39;64.57
66144;SHT31;52947;50.842;6.084;2024-03-02T08:16:45;14.21;65.85
66144;SHT31;52947;50.842;6.084;2024-03-02T08:19:13;13.50;66.27
66144;SHT31;52947;50.842;6.084;2024-03-02T08:21:44;13.86;66.66
66144;SHT31;52947;50.842;6.084;2024-03-02T08:24:12;13.83;65.59
66144;SHT31;52947;50.842;6.084;2024-03-02T08:26:40;13.08;66.92
66144;SHT31;52947;50.842;6.084;2024-03-02T08:29:08;12.69;68.21
66144;SHT31;52947;50.842;6.084;2024-03-02T08:31:36;12.65;67.93
66144;SHT31;52947;50.842;6.084;2024-03-02T08:34:07;12.33;68.49
66144;SHT31;52947;50.842;6.084;2024-03-02T08:36:36;12.80;68.28
66144;SHT31;52947;50.842;6.084;2024-03-02T08:39:06;12.67;67.31
66144;SHT31;52947;50.842;6.084;2024-03-02T08:41:43;12.89;66.67
66144;SHT31;52947;50.842;6.084;2024-03-02T08:44:12;12.60;67.99
66144;SHT31;52947;50.842;6.084;2024-03-02T08:46:40;12.92;66.34
66144;SHT31;52947;50.842;6.084;2024-03-02T08:49:08;13.20;66.40
66144;SHT31;52947;50.842;6.084;2024-03-02T08:51:37;14.35;64.75
66144;SHT31;52947;50.842;6.084;2024-03-02T08:54:06;15.16;61.59
66144;SHT31;52947;50.842;6.084;2024-03-02T08:56:35;15.44;61.54
66144;SHT31;52947;50.842;6.084;2024-03-02T08:59:03;15.87;60.52
66144;SHT31;52947;50.842;6.084;2024-03-02T09:01:32;15.87;60.25
66144;SHT31;52947;50.842;6.084;2024-03-02T09:04:00;15.55;60.70
66144;SHT31;52947;50.842;6.084;2024-03-02T09:06:28;14.66;62.30
66144;SHT31;52947;50.842;6.084;2024-03-02T09:08:56;15.10;61.01
66144;SHT31;52947;50.842;6.084;2024-03-02T09:11:26;15.37;60.25
66144;SHT31;52947;50.842;6.084;2024-03-02T09:13:54;15.08;60.51
66144;SHT31;52947;50.842;6.084;2024-03-02T09:16:23;15.02;60.85
66144;SHT31;52947;50.842;6.084;2024-03-02T09:18:57;15.22;61.42
66144;SHT31;52947;50.842;6.084;2024-03-02T09:21:25;15.61;60.62
66144;SHT31;52947;50.842;6.084;2024-03-02T09:23:53;16.46;58.22
66144;SHT31;52947;50.842;6.084;2024-03-02T09:26:21;16.29;57.85
66144;SHT31;52947;50.842;6.084;2024-03-02T09:28:52;16.47;57.95
66144;SHT31;52947;50.842;6.084;2024-03-02T09:31:19;16.40;58.20
66144;SHT31;52947;50.842;6.084;2024-03-02T09:33:47;16.39;57.78
66144;SHT31;52947;50.842;6.084;2024-03-02T09:36:18;16.92;57.17
66144;SHT31;52947;50.842;6.084;2024-03-02T09:38:47;16.19;57.05
66144;SHT31;52947;50.842;6.084;2024-03-02T09:41:15;16.57;57.53
66144;SHT31;52947;50.842;6.084;2024-03-02T09:43:43;16.69;57.28
66144;SHT31;52947;50.842;6.084;2024-03-02T09:46:13;16.42;57.14
66144;SHT31;52947;50.842;6.084;2024-03-02T09:48:41;15.87;57.03
66144;SHT31;52947;50.842;6.084;2024-03-02T09:51:27;15.07;58.91
66144;SHT31;52947;50.842;6.084;2024-03-02T09:53:55;14.56;60.08
66144;SHT31;52947;50.842;6.084;2024-03-02T09:56:39;14.20;61.65
66144;SHT31;52947;50.842;6.084;2024-03-02T09:59:06;15.79;59.24
66144;SHT31;52947;50.842;6.084;2024-03-02T10:01:36;15.81;58.92
66144;SHT31;52947;50.842;6.084;2024-03-02T10:04:05;16.34;57.61
66144;SHT31;52947;50.842;6.084;2024-03-02T10:06:33;16.28;56.59
66144;SHT31;52947;50.842;6.084;2024-03-02T10:09:01;16.28;56.34
66144;SHT31;52947;50.842;6.084;2024-03-02T10:11:30;15.79;57.21
66144;SHT31;52947;50.842;6.084;2024-03-02T10:14:06;15.69;58.36
66144;SHT31;52947;50.842;6.084;2024-03-02T10:16:38;16.26;57.35
66144;SHT31;52947;50.842;6.084;2024-03-02T10:19:16;16.50;56.58
66144;SHT31;52947;50.842;6.084;2024-03-02T10:21:45;16.63;56.01
66144;SHT31;52947;50.842;6.084;2024-03-02T10:24:14;17.12;55.64
66144;SHT31;52947;50.842;6.084;2024-03-02T10:26:42;17.12;55.71
66144;SHT31;52947;50.842;6.084;2024-03-02T10:29:11;17.11;55.55
66144;SHT31;52947;50.842;6.084;2024-03-02T10:31:41;17.03;55.46
66144;SHT31;52947;50.842;6.084;2024-03-02T10:34:10;16.19;57.11
66144;SHT31;52947;50.842;6.084;2024-03-02T10:36:41;15.91;57.46
66144;SHT31;52947;50.842;6.084;2024-03-02T10:39:09;16.53;56.43
66144;SHT31;52947;50.842;6.084;2024-03-02T10:41:38;16.91;55.76
66144;SHT31;52947;50.842;6.084;2024-03-02T10:44:08;17.46;55.07
66144;SHT31;52947;50.842;6.084;2024-03-02T10:46:37;16.81;55.34
66144;SHT31;52947;50.842;6.084;2024-03-02T10:49:06;16.23;56.46
66144;SHT31;52947;50.842;6.084;2024-03-02T10:51:35;16.12;57.35
66144;SHT31;52947;50.842;6.084;2024-03-02T10:54:04;16.10;57.22
66144;SHT31;52947;50.842;6.084;2024-03-02T10:56:34;16.38;56.75
66144;SHT31;52947;50.842;6.084;2024-03-02T10:59:15;16.45;56.39
66144;SHT31;52947;50.842;6.084;2024-03-02T11:01:46;16.79;55.51
66144;SHT31;52947;50.842;6.084;2024-03-02T11:04:18;16.91;54.94
66144;SHT31;52947;50.842;6.084;2024-03-02T11:06:49;17.15;55.09
66144;SHT31;52947;50.842;6.084;2024-03-02T11:09:20;17.24;54.14
66144;SHT31;52947;50.842;6.084;2024-03-02T11:11:56;17.46;53.53
66144;SHT31;52947;50.842;6.084;2024-03-02T11:14:25;17.83;52.97
66144;SHT31;52947;50.842;6.084;2024-03-02T11:16:53;17.43;53.33
66144;SHT31;52947;50.842;6.084;2024-03-02T11:19:23;17.14;53.95
66144;SHT31;52947;50.842;6.084;2024-03-02T11:21:52;16.77;54.67
66144;SHT31;52947;50.842;6.084;2024-03-02T11:24:33;17.93;53.57
66144;SHT31;52947;50.842;6.084;2024-03-02T11:27:05;18.58;52.33
66144;SHT31;52947;50.842;6.084;2024-03-02T11:29:43;18.45;51.99
66144;SHT31;52947;50.842;6.084;2024-03-02T11:32:15;18.64;52.09
66144;SHT31;52947;50.842;6.084;2024-03-02T11:34:48;18.43;52.01
66144;SHT31;52947;50.842;6.084;2024-03-02T11:37:18;18.01;52.58
66144;SHT31;52947;50.842;6.084;2024-03-02T11:39:49;17.24;54.77
66144;SHT31;52947;50.842;6.084;2024-03-02T11:42:18;16.76;54.77
66144;SHT31;52947;50.842;6.084;2024-03-02T11:44:47;15.69;57.82
66144;SHT31;52947;50.842;6.084;2024-03-02T11:47:17;15.68;58.17
66144;SHT31;52947;50.842;6.084;2024-03-02T11:49:49;15.88;58.21
66144;SHT31;52947;50.842;6.084;2024-03-02T11:52:18;16.29;56.70
66144;SHT31;52947;50.842;6.084;2024-03-02T11:54:46;17.03;55.64
66144;SHT31;52947;50.842;6.084;2024-03-02T11:57:16;18.29;53.23
66144;SHT31;52947;50.842;6.084;2024-03-02T11:59:45;18.04;53.52
66144;SHT31;52947;50.842;6.084;2024-03-02T12:02:19;17.66;55.13
66144;SHT31;52947;50.842;6.084;2024-03-02T12:04:49;16.69;55.52
66144;SHT31;52947;50.842;6.084;2024-03-02T12:07:21;17.07;55.32
66144;SHT31;52947;50.842;6.084;2024-03-02T12:10:00;16.52;56.20
66144;SHT31;52947;50.842;6.084;2024-03-02T12:12:29;16.59;56.76
66144;SHT31;52947;50.842;6.084;2024-03-02T12:14:57;16.13;56.89
66144;SHT31;52947;50.842;6.084;2024-03-02T12:17:27;16.34;57.19
66144;SHT31;52947;50.842;6.084;2024-03-02T12:20:15;16.53;57.33
66144;SHT31;52947;50.842;6.084;2024-03-02T12:22:43;15.67;58.18
66144;SHT31;52947;50.842;6.084;2024-03-02T12:25:12;15.97;58.46
66144;SHT31;52947;50.842;6.084;2024-03-02T12:27:41;16.38;57.15
66144;SHT31;52947;50.842;6.084;2024-03-02T12:30:10;17.03;56.37
66144;SHT31;52947;50.842;6.084;2024-03-02T12:32:38;16.91;56.23
66144;SHT31;52947;50.842;6.084;2024-03-02T12:35:07;17.45;55.50
66144;SHT31;52947;50.842;6.084;2024-03-02T12:37:43;17.61;55.05
66144;SHT31;52947;50.842;6.084;2024-03-02T12:40:12;17.99;54.86
66144;SHT31;52947;50.842;6.084;2024-03-02T12:42:41;18.16;54.90
66144;SHT31;52947;50.842;6.084;2024-03-02T12:45:09;18.76;53.83
66144;SHT31;52947;50.842;6.084;2024-03-02T12:47:39;19.43;52.64
66144;SHT31;52947;50.842;6.084;2024-03-02T12:50:08;18.84;52.84
66144;SHT31;52947;50.842;6.084;2024-03-02T12:52:37;17.85;54.81
66144;SHT31;52947;50.842;6.084;2024-03-02T12:55:06;17.22;56.14
66144;SHT31;52947;50.842;6.084;2024-03-02T12:57:34;16.60;57.86
66144;SHT31;52947;50.842;6.084;2024-03-02T13:00:05;16.18;58.41
66144;SHT31;52947;50.842;6.084;2024-03-02T13:02:36;16.16;58.92
66144;SHT31;52947;50.842;6.084;2024-03-02T13:05:06;15.92;59.89
66144;SHT31;52947;50.842;6.084;2024-03-02T13:07:38;15.43;61.35
66144;SHT31;52947;50.842;6.084;2024-03-02T13:10:07;15.59;61.08
66144;SHT31;52947;50.842;6.084;2024-03-02T13:12:36;15.41;60.91
66144;SHT31;52947;50.842;6.084;2024-03-02T13:15:05;14.92;62.04
66144;SHT31;52947;50.842;6.084;2024-03-02T13:17:34;14.56;63.49
66144;SHT31;52947;50.842;6.084;2024-03-02T13:20:05;14.15;64.56
66144;SHT31;52947;50.842;6.084;2024-03-02T13:22:37;14.03;64.98
66144;SHT31;52947;50.842;6.084;2024-03-02T13:25:07;13.83;65.39
66144;SHT31;52947;50.842;6.084;2024-03-02T13:27:38;13.49;66.59
66144;SHT31;52947;50.842;6.084;2024-03-02T13:30:07;13.59;66.53
66144;SHT31;52947;50.842;6.084;2024-03-02T13:32:36;13.60;66.56
66144;SHT31;52947;50.842;6.084;2024-03-02T13:35:04;13.66;66.40
66144;SHT31;52947;50.842;6.084;2024-03-02T13:37:33;13.76;66.49
66144;SHT31;52947;50.842;6.084;2024-03-02T13:40:01;13.83;65.61
66144;SHT31;52947;50.842;6.084;2024-03-02T13:42:33;13.86;65.83
66144;SHT31;52947;50.842;6.084;2024-03-02T13:45:01;13.77;65.75
66144;SHT31;52947;50.842;6.084;2024-03-02T13:47:31;13.98;66.26
66144;SHT31;52947;50.842;6.084;2024-03-02T13:49:59;13.86;65.82
66144;SHT31;52947;50.842;6.084;2024-03-02T13:52:29;14.08;65.29
66144;SHT31;52947;50.842;6.084;2024-03-02T13:54:57;14.49;65.63
66144;SHT31;52947;50.842;6.084;2024-03-02T13:57:25;14.59;64.60
66144;SHT31;52947;50.842;6.084;2024-03-02T13:59:54;14.51;64.52
66144;SHT31;52947;50.842;6.084;2024-03-02T14:02:22;14.68;64.62
66144;SHT31;52947;50.842;6.084;2024-03-02T14:04:50;14.41;65.04
66144;SHT31;52947;50.842;6.084;2024-03-02T14:07:18;14.17;66.09
66144;SHT31;52947;50.842;6.084;2024-03-02T14:09:46;14.24;65.97
66144;SHT31;52947;50.842;6.084;2024-03-02T14:12:14;14.17;65.91
66144;SHT31;52947;50.842;6.084;2024-03-02T14:14:42;14.22;66.09
66144;SHT31;52947;50.842;6.084;2024-03-02T14:17:12;14.08;66.00
66144;SHT31;52947;50.842;6.084;2024-03-02T14:19:42;14.18;66.13
66144;SHT31;52947;50.842;6.084;2024-03-02T14:22:10;14.15;66.29
66144;SHT31;52947;50.842;6.084;2024-03-02T14:24:40;13.98;67.05
66144;SHT31;52947;50.842;6.084;2024-03-02T14:27:10;14.17;66.34
66144;SHT31;52947;50.842;6.084;2024-03-02T14:29:54;14.38;65.92
66144;SHT31;52947;50.842;6.084;2024-03-02T14:32:23;14.04;66.41
66144;SHT31;52947;50.842;6.084;2024-03-02T14:34:51;13.95;66.65
66144;SHT31;52947;50.842;6.084;2024-03-02T14:37:19;13.94;66.94
66144;SHT31;52947;50.842;6.084;2024-03-02T14:39:48;13.97;66.91
66144;SHT31;52947;50.842;6.084;2024-03-02T14:42:17;13.93;67.44
66144;SHT31;52947;50.842;6.084;2024-03-02T14:44:45;14.00;66.61
66144;SHT31;52947;50.842;6.084;2024-03-02T14:47:13;14.03;66.64
66144;SHT31;52947;50.842;6.084;2024-03-02T14:49:43;13.88;66.54
66144;SHT31;52947;50.842;6.084;2024-03-02T14:52:11;13.88;66.65
66144;SHT31;52947;50.842;6.084;2024-03-02T14:54:39;13.84;66.43
66144;SHT31;52947;50.842;6.084;2024-03-02T14:57:09;13.76;66.10
66144;SHT31;52947;50.842;6.084;2024-03-02T14:59:38;13.69;66.27
66144;SHT31;52947;50.842;6.084;2024-03-02T15:02:07;13.73;66.16
66144;SHT31;52947;50.842;6.084;2024-03-02T15:04:36;13.74;66.39
66144;SHT31;52947;50.842;6.084;2024-03-02T15:07:05;13.71;66.03
66144;SHT31;52947;50.842;6.084;2024-03-02T15:09:33;13.67;66.05
66144;SHT31;52947;50.842;6.084;2024-03-02T15:12:03;13.67;66.18
66144;SHT31;52947;50.842;6.084;2024-03-02T15:14:31;13.71;66.58
66144;SHT31;52947;50.842;6.084;2024-03-02T15:17:00;13.67;66.74
66144;SHT31;52947;50.842;6.084;2024-03-02T15:19:28;13.70;67.12
66144;SHT31;52947;50.842;6.084;2024-03-02T15:21:56;13.69;66.87
66144;SHT31;52947;50.842;6.084;2024-03-02T15:24:25;13.56;66.94
66144;SHT31;52947;50.842;6.084;2024-03-02T15:26:53;13.66;66.73
66144;SHT31;52947;50.842;6.084;2024-03-02T15:29:24;13.56;67.13
66144;SHT31;52947;50.842;6.084;2024-03-02T15:31:56;13.69;66.82
66144;SHT31;52947;50.842;6.084;2024-03-02T15:34:24;13.62;65.84
66144;SHT31;52947;50.842;6.084;2024-03-02T15:36:52;13.57;66.12
66144;SHT31;52947;50.842;6.084;2024-03-02T15:39:20;13.45;66.31
66144;SHT31;52947;50.842;6.084;2024-03-02T15:41:50;13.53;66.31
66144;SHT31;52947;50.842;6.084;2024-03-02T15:44:18;13.45;66.33
66144;SHT31;52947;50.842;6.084;2024-03-02T15:46:46;13.42;66.62
66144;SHT31;52947;50.842;6.084;2024-03-02T15:49:14;13.38;66.53
66144;SHT31;52947;50.842;6.084;2024-03-02T15:51:46;13.30;66.55